sensor_id;sensor_type;location;lat;lon;timestamp;P1;durP1;ratioP1;P2;durP2;ratioP2
76433;SDS011;65265;53.200;6.080;2023-05-10T00:03:32;5.95;;;4.80;;
76433;SDS011;65265;53.200;6.080;2023-05-10T00:08:24;6.45;;;5.43;;
76433;SDS011;65265;53.200;6.080;2023-05-10T00:18:07;6.95;;;4.85;;
76433;SDS011;65265;53.200;6.080;2023-05-10T00:22:59;7.40;;;5.18;;
76433;SDS011;65265;53.200;6.080;2023-05-10T00:27:51;8.98;;;7.72;;
76433;SDS011;65265;53.200;6.080;2023-05-10T00:32:45;8.70;;;6.68;;
76433;SDS011;65265;53.200;6.080;2023-05-10T00:37:38;10.55;;;8.38;;
76433;SDS011;65265;53.200;6.080;2023-05-10T00:42:29;10.82;;;8.02;;
76433;SDS011;65265;53.200;6.080;2023-05-10T00:47:22;7.95;;;6.63;;
76433;SDS011;65265;53.200;6.080;2023-05-10T00:52:13;5.60;;;4.85;;
76433;SDS011;65265;53.200;6.080;2023-05-10T00:57:05;5.28;;;4.78;;
76433;SDS011;65265;53.200;6.080;2023-05-10T01:01:57;4.22;;;3.60;;
76433;SDS011;65265;53.200;6.080;2023-05-10T01:06:50;4.32;;;3.85;;
76433;SDS011;65265;53.200;6.080;2023-05-10T01:11:43;4.50;;;3.92;;
76433;SDS011;65265;53.200;6.080;2023-05-10T01:16:36;4.95;;;4.45;;
76433;SDS011;65265;53.200;6.080;2023-05-10T01:21:30;7.13;;;6.43;;
76433;SDS011;65265;53.200;6.080;2023-05-10T01:26:36;9.80;;;7.50;;
76433;SDS011;65265;53.200;6.080;2023-05-10T01:32:03;12.60;;;7.63;;
76433;SDS011;65265;53.200;6.080;2023-05-10T01:37:04;13.48;;;8.70;;
76433;SDS011;65265;53.200;6.080;2023-05-10T01:41:59;15.15;;;10.65;;
76433;SDS011;65265;53.200;6.080;2023-05-10T01:46:56;15.60;;;10.82;;
76433;SDS011;65265;53.200;6.080;2023-05-10T01:51:54;15.95;;;11.43;;
76433;SDS011;65265;53.200;6.080;2023-05-10T01:56:52;16.30;;;11.13;;
76433;SDS011;65265;53.200;6.080;2023-05-10T02:06:42;21.40;;;13.60;;
76433;SDS011;65265;53.200;6.080;2023-05-10T02:11:35;21.08;;;12.18;;
76433;SDS011;65265;53.200;6.080;2023-05-10T02:16:28;21.00;;;12.52;;
76433;SDS011;65265;53.200;6.080;2023-05-10T02:21:22;23.08;;;11.98;;
76433;SDS011;65265;53.200;6.080;2023-05-10T02:26:15;20.75;;;12.18;;
76433;SDS011;65265;53.200;6.080;2023-05-10T02:31:10;21.90;;;11.93;;
76433;SDS011;65265;53.200;6.080;2023-05-10T02:36:03;20.45;;;12.10;;
76433;SDS011;65265;53.200;6.080;2023-05-10T02:40:55;21.00;;;13.38;;
76433;SDS011;65265;53.200;6.080;2023-05-10T02:45:47;18.38;;;11.88;;
76433;SDS011;65265;53.200;6.080;2023-05-10T02:50:40;11.43;;;9.20;;
76433;SDS011;65265;53.200;6.080;2023-05-10T02:55:36;11.82;;;8.55;;
76433;SDS011;65265;53.200;6.080;2023-05-10T03:00:31;7.20;;;6.13;;
76433;SDS011;65265;53.200;6.080;2023-05-10T03:05:22;7.47;;;5.88;;
76433;SDS011;65265;53.200;6.080;2023-05-10T03:10:15;4.30;;;3.45;;
76433;SDS011;65265;53.200;6.080;2023-05-10T03:15:09;2.42;;;1.88;;
76433;SDS011;65265;53.200;6.080;2023-05-10T03:20:06;2.97;;;2.65;;
76433;SDS011;65265;53.200;6.080;2023-05-10T03:25:02;2.50;;;2.30;;
76433;SDS011;65265;53.200;6.080;2023-05-10T03:29:59;4.32;;;3.92;;
76433;SDS011;65265;53.200;6.080;2023-05-10T03:34:53;3.50;;;3.20;;
76433;SDS011;65265;53.200;6.080;2023-05-10T03:39:44;4.70;;;3.50;;
76433;SDS011;65265;53.200;6.080;2023-05-10T03:44:35;3.50;;;3.17;;
76433;SDS011;65265;53.200;6.080;2023-05-10T03:49:28;4.78;;;4.35;;
76433;SDS011;65265;53.200;6.080;2023-05-10T03:54:20;4.55;;;4.15;;
76433;SDS011;65265;53.200;6.080;2023-05-10T03:59:11;6.15;;;4.25;;
76433;SDS011;65265;53.200;6.080;2023-05-10T04:04:03;7.28;;;5.38;;
76433;SDS011;65265;53.200;6.080;2023-05-10T04:08:56;6.82;;;4.20;;
76433;SDS011;65265;53.200;6.080;2023-05-10T04:13:49;7.85;;;5.93;;
76433;SDS011;65265;53.200;6.080;2023-05-10T04:18:41;9.35;;;4.93;;
76433;SDS011;65265;53.200;6.080;2023-05-10T04:23:32;13.93;;;8.65;;
76433;SDS011;65265;53.200;6.080;2023-05-10T04:28:25;12.45;;;9.23;;
76433;SDS011;65265;53.200;6.080;2023-05-10T04:33:17;10.85;;;7.53;;
76433;SDS011;65265;53.200;6.080;2023-05-10T04:38:08;12.73;;;8.63;;
76433;SDS011;65265;53.200;6.080;2023-05-10T04:43:00;11.73;;;8.13;;
76433;SDS011;65265;53.200;6.080;2023-05-10T04:47:53;17.00;;;9.70;;
76433;SDS011;65265;53.200;6.080;2023-05-10T04:52:44;17.35;;;10.48;;
76433;SDS011;65265;53.200;6.080;2023-05-10T04:57:36;16.08;;;11.82;;
76433;SDS011;65265;53.200;6.080;2023-05-10T05:02:27;18.05;;;10.50;;
76433;SDS011;65265;53.200;6.080;2023-05-10T05:07:20;11.90;;;8.07;;
76433;SDS011;65265;53.200;6.080;2023-05-10T05:12:12;8.02;;;6.20;;
76433;SDS011;65265;53.200;6.080;2023-05-10T05:17:04;7.68;;;5.88;;
76433;SDS011;65265;53.200;6.080;2023-05-10T05:21:55;6.20;;;4.50;;
76433;SDS011;65265;53.200;6.080;2023-05-10T05:26:48;3.50;;;1.90;;
76433;SDS011;65265;53.200;6.080;2023-05-10T05:41:22;2.35;;;2.08;;
76433;SDS011;65265;53.200;6.080;2023-05-10T05:46:16;2.65;;;2.45;;
76433;SDS011;65265;53.200;6.080;2023-05-10T05:51:08;2.50;;;1.85;;
76433;SDS011;65265;53.200;6.080;2023-05-10T05:55:59;3.13;;;2.90;;
76433;SDS011;65265;53.200;6.080;2023-05-10T06:00:51;3.88;;;3.58;;
76433;SDS011;65265;53.200;6.080;2023-05-10T06:05:44;3.20;;;2.60;;
76433;SDS011;65265;53.200;6.080;2023-05-10T06:10:36;4.05;;;3.08;;
76433;SDS011;65265;53.200;6.080;2023-05-10T06:15:27;6.50;;;4.53;;
76433;SDS011;65265;53.200;6.080;2023-05-10T06:20:19;6.03;;;5.43;;
76433;SDS011;65265;53.200;6.080;2023-05-10T06:25:11;6.07;;;5.20;;
76433;SDS011;65265;53.200;6.080;2023-05-10T06:30:04;6.20;;;5.05;;
76433;SDS011;65265;53.200;6.080;2023-05-10T06:34:58;5.75;;;4.38;;
76433;SDS011;65265;53.200;6.080;2023-05-10T06:39:49;5.07;;;4.38;;
76433;SDS011;65265;53.200;6.080;2023-05-10T06:44:42;5.47;;;3.70;;
76433;SDS011;65265;53.200;6.080;2023-05-10T06:49:33;3.75;;;3.45;;
76433;SDS011;65265;53.200;6.080;2023-05-10T06:54:25;2.63;;;2.42;;
76433;SDS011;65265;53.200;6.080;2023-05-10T06:59:16;2.83;;;2.45;;
76433;SDS011;65265;53.200;6.080;2023-05-10T07:04:10;2.20;;;2.00;;
76433;SDS011;65265;53.200;6.080;2023-05-10T07:09:02;2.78;;;2.55;;
76433;SDS011;65265;53.200;6.080;2023-05-10T07:13:54;2.90;;;2.70;;
76433;SDS011;65265;53.200;6.080;2023-05-10T07:18:45;2.65;;;2.45;;
76433;SDS011;65265;53.200;6.080;2023-05-10T07:23:38;2.65;;;2.42;;
76433;SDS011;65265;53.200;6.080;2023-05-10T07:33:21;3.08;;;2.10;;
76433;SDS011;65265;53.200;6.080;2023-05-10T07:38:12;3.17;;;2.80;;
76433;SDS011;65265;53.200;6.080;2023-05-10T07:43:05;3.88;;;2.60;;
76433;SDS011;65265;53.200;6.080;2023-05-10T07:47:57;3.38;;;3.08;;
76433;SDS011;65265;53.200;6.080;2023-05-10T07:52:49;4.72;;;2.88;;
76433;SDS011;65265;53.200;6.080;2023-05-10T07:57:41;5.93;;;3.58;;
76433;SDS011;65265;53.200;6.080;2023-05-10T08:02:35;5.30;;;3.63;;
76433;SDS011;65265;53.200;6.080;2023-05-10T08:07:27;3.25;;;2.58;;
76433;SDS011;65265;53.200;6.080;2023-05-10T08:12:18;3.95;;;2.85;;
76433;SDS011;65265;53.200;6.080;2023-05-10T08:17:10;2.75;;;2.30;;
76433;SDS011;65265;53.200;6.080;2023-05-10T08:22:03;6.15;;;3.13;;
76433;SDS011;65265;53.200;6.080;2023-05-10T08:26:54;4.40;;;3.25;;
76433;SDS011;65265;53.200;6.080;2023-05-10T08:31:46;6.22;;;4.40;;
76433;SDS011;65265;53.200;6.080;2023-05-10T08:36:37;4.50;;;2.53;;
76433;SDS011;65265;53.200;6.080;2023-05-10T08:41:30;5.80;;;3.65;;
76433;SDS011;65265;53.200;6.080;2023-05-10T08:46:25;7.63;;;4.80;;
76433;SDS011;65265;53.200;6.080;2023-05-10T08:51:20;6.72;;;4.50;;
76433;SDS011;65265;53.200;6.080;2023-05-10T08:56:16;5.85;;;3.10;;
76433;SDS011;65265;53.200;6.080;2023-05-10T09:01:11;3.42;;;2.30;;
76433;SDS011;65265;53.200;6.080;2023-05-10T09:06:04;4.18;;;3.25;;
76433;SDS011;65265;53.200;6.080;2023-05-10T09:10:56;4.25;;;3.40;;
76433;SDS011;65265;53.200;6.080;2023-05-10T09:15:48;3.35;;;2.40;;
76433;SDS011;65265;53.200;6.080;2023-05-10T09:20:41;4.55;;;3.42;;
76433;SDS011;65265;53.200;6.080;2023-05-10T09:25:33;5.70;;;3.10;;
76433;SDS011;65265;53.200;6.080;2023-05-10T09:30:25;4.97;;;3.00;;
76433;SDS011;65265;53.200;6.080;2023-05-10T09:35:20;4.35;;;2.20;;
76433;SDS011;65265;53.200;6.080;2023-05-10T09:40:16;4.43;;;3.95;;
76433;SDS011;65265;53.200;6.080;2023-05-10T09:45:09;4.00;;;2.90;;
76433;SDS011;65265;53.200;6.080;2023-05-10T09:50:01;5.32;;;3.63;;
76433;SDS011;65265;53.200;6.080;2023-05-10T09:54:54;6.72;;;4.65;;
76433;SDS011;65265;53.200;6.080;2023-05-10T09:59:47;6.45;;;5.00;;
76433;SDS011;65265;53.200;6.080;2023-05-10T10:04:40;5.13;;;2.92;;
76433;SDS011;65265;53.200;6.080;2023-05-10T10:09:32;8.02;;;5.10;;
76433;SDS011;65265;53.200;6.080;2023-05-10T10:14:25;9.35;;;4.78;;
76433;SDS011;65265;53.200;6.080;2023-05-10T10:19:18;7.72;;;5.32;;
76433;SDS011;65265;53.200;6.080;2023-05-10T10:24:09;9.27;;;6.13;;
76433;SDS011;65265;53.200;6.080;2023-05-10T10:29:04;9.80;;;6.13;;
76433;SDS011;65265;53.200;6.080;2023-05-10T10:34:03;7.57;;;5.38;;
76433;SDS011;65265;53.200;6.080;2023-05-10T10:38:59;10.73;;;5.05;;
76433;SDS011;65265;53.200;6.080;2023-05-10T10:49:14;8.32;;;4.53;;
76433;SDS011;65265;53.200;6.080;2023-05-10T10:54:11;6.60;;;4.40;;
76433;SDS011;65265;53.200;6.080;2023-05-10T10:59:03;6.28;;;4.93;;
76433;SDS011;65265;53.200;6.080;2023-05-10T11:09:12;6.45;;;4.72;;
76433;SDS011;65265;53.200;6.080;2023-05-10T11:14:04;6.75;;;4.57;;
76433;SDS011;65265;53.200;6.080;2023-05-10T11:18:59;5.82;;;2.45;;
76433;SDS011;65265;53.200;6.080;2023-05-10T11:23:52;5.13;;;3.60;;
76433;SDS011;65265;53.200;6.080;2023-05-10T11:28:47;5.47;;;4.45;;
76433;SDS011;65265;53.200;6.080;2023-05-10T11:33:43;7.50;;;5.00;;
76433;SDS011;65265;53.200;6.080;2023-05-10T11:38:34;6.88;;;4.70;;
76433;SDS011;65265;53.200;6.080;2023-05-10T11:43:26;7.50;;;5.45;;
76433;SDS011;65265;53.200;6.080;2023-05-10T11:48:22;7.65;;;4.82;;
76433;SDS011;65265;53.200;6.080;2023-05-10T11:53:14;6.57;;;4.40;;
76433;SDS011;65265;53.200;6.080;2023-05-10T11:58:05;5.68;;;4.05;;
76433;SDS011;65265;53.200;6.080;2023-05-10T12:02:56;4.05;;;3.17;;
76433;SDS011;65265;53.200;6.080;2023-05-10T12:07:50;4.43;;;3.25;;
76433;SDS011;65265;53.200;6.080;2023-05-10T12:12:42;5.07;;;3.33;;
76433;SDS011;65265;53.200;6.080;2023-05-10T12:17:34;4.50;;;3.42;;
76433;SDS011;65265;53.200;6.080;2023-05-10T12:22:28;5.53;;;2.40;;
76433;SDS011;65265;53.200;6.080;2023-05-10T12:27:21;5.22;;;3.95;;
76433;SDS011;65265;53.200;6.080;2023-05-10T12:32:12;6.15;;;4.40;;
76433;SDS011;65265;53.200;6.080;2023-05-10T12:37:04;5.72;;;3.88;;
76433;SDS011;65265;53.200;6.080;2023-05-10T12:41:55;7.82;;;4.97;;
76433;SDS011;65265;53.200;6.080;2023-05-10T12:46:48;7.70;;;4.90;;
76433;SDS011;65265;53.200;6.080;2023-05-10T12:51:40;8.65;;;5.63;;
76433;SDS011;65265;53.200;6.080;2023-05-10T12:56:32;9.50;;;6.22;;
76433;SDS011;65265;53.200;6.080;2023-05-10T13:01:23;9.63;;;5.43;;
76433;SDS011;65265;53.200;6.080;2023-05-10T13:06:16;7.72;;;5.88;;
76433;SDS011;65265;53.200;6.080;2023-05-10T13:11:07;10.20;;;6.05;;
76433;SDS011;65265;53.200;6.080;2023-05-10T13:15:59;9.52;;;5.40;;
76433;SDS011;65265;53.200;6.080;2023-05-10T13:20:50;7.00;;;4.38;;
76433;SDS011;65265;53.200;6.080;2023-05-10T13:25:43;6.20;;;4.22;;
76433;SDS011;65265;53.200;6.080;2023-05-10T13:30:34;4.82;;;2.45;;
76433;SDS011;65265;53.200;6.080;2023-05-10T13:35:26;8.32;;;4.18;;
76433;SDS011;65265;53.200;6.080;2023-05-10T13:40:17;6.70;;;4.53;;
76433;SDS011;65265;53.200;6.080;2023-05-10T13:45:11;8.88;;;4.30;;
76433;SDS011;65265;53.200;6.080;2023-05-10T13:50:03;8.60;;;5.20;;
76433;SDS011;65265;53.200;6.080;2023-05-10T13:54:55;9.52;;;5.13;;
76433;SDS011;65265;53.200;6.080;2023-05-10T13:59:47;5.32;;;4.22;;
76433;SDS011;65265;53.200;6.080;2023-05-10T14:04:39;6.20;;;2.75;;
76433;SDS011;65265;53.200;6.080;2023-05-10T14:09:31;5.47;;;2.30;;
76433;SDS011;65265;53.200;6.080;2023-05-10T14:14:22;5.72;;;3.47;;
76433;SDS011;65265;53.200;6.080;2023-05-10T14:19:14;4.40;;;2.85;;
76433;SDS011;65265;53.200;6.080;2023-05-10T14:24:07;4.50;;;3.35;;
76433;SDS011;65265;53.200;6.080;2023-05-10T14:28:59;5.90;;;3.95;;
76433;SDS011;65265;53.200;6.080;2023-05-10T14:33:50;6.53;;;4.40;;
76433;SDS011;65265;53.200;6.080;2023-05-10T14:38:42;5.32;;;4.05;;
76433;SDS011;65265;53.200;6.080;2023-05-10T14:43:34;3.83;;;2.60;;
76433;SDS011;65265;53.200;6.080;2023-05-10T14:48:26;2.92;;;2.47;;
76433;SDS011;65265;53.200;6.080;2023-05-10T14:53:18;4.15;;;3.50;;
76433;SDS011;65265;53.200;6.080;2023-05-10T14:58:09;4.55;;;2.53;;
76433;SDS011;65265;53.200;6.080;2023-05-10T15:03:02;4.75;;;3.38;;
76433;SDS011;65265;53.200;6.080;2023-05-10T15:07:54;3.30;;;2.95;;
76433;SDS011;65265;53.200;6.080;2023-05-10T15:12:45;2.63;;;1.05;;
76433;SDS011;65265;53.200;6.080;2023-05-10T15:17:37;3.33;;;2.45;;
76433;SDS011;65265;53.200;6.080;2023-05-10T15:22:30;2.65;;;1.92;;
76433;SDS011;65265;53.200;6.080;2023-05-10T15:27:21;3.58;;;2.75;;
76433;SDS011;65265;53.200;6.080;2023-05-10T15:32:13;4.80;;;3.05;;
76433;SDS011;65265;53.200;6.080;2023-05-10T15:37:04;3.33;;;2.72;;
76433;SDS011;65265;53.200;6.080;2023-05-10T15:41:57;4.15;;;3.00;;
76433;SDS011;65265;53.200;6.080;2023-05-10T15:46:49;4.97;;;3.20;;
76433;SDS011;65265;53.200;6.080;2023-05-10T15:51:40;4.10;;;3.33;;
76433;SDS011;65265;53.200;6.080;2023-05-10T15:56:32;4.47;;;4.05;;
76433;SDS011;65265;53.200;6.080;2023-05-10T16:01:25;3.90;;;2.80;;
76433;SDS011;65265;53.200;6.080;2023-05-10T16:06:17;5.63;;;3.90;;
76433;SDS011;65265;53.200;6.080;2023-05-10T16:11:08;5.28;;;4.40;;
76433;SDS011;65265;53.200;6.080;2023-05-10T16:16:00;5.85;;;4.38;;
76433;SDS011;65265;53.200;6.080;2023-05-10T16:20:53;4.97;;;3.92;;
76433;SDS011;65265;53.200;6.080;2023-05-10T16:25:45;7.50;;;3.80;;
76433;SDS011;65265;53.200;6.080;2023-05-10T16:30:37;6.03;;;4.75;;
76433;SDS011;65265;53.200;6.080;2023-05-10T16:35:29;5.60;;;4.20;;
76433;SDS011;65265;53.200;6.080;2023-05-10T16:40:21;7.30;;;5.18;;
76433;SDS011;65265;53.200;6.080;2023-05-10T16:45:13;6.55;;;3.85;;
76433;SDS011;65265;53.200;6.080;2023-05-10T16:50:06;5.00;;;3.95;;
76433;SDS011;65265;53.200;6.080;2023-05-10T16:54:58;6.03;;;4.32;;
76433;SDS011;65265;53.200;6.080;2023-05-10T16:59:51;7.70;;;4.82;;
76433;SDS011;65265;53.200;6.080;2023-05-10T17:04:43;6.75;;;5.13;;
76433;SDS011;65265;53.200;6.080;2023-05-10T17:09:34;7.65;;;4.68;;
76433;SDS011;65265;53.200;6.080;2023-05-10T17:14:26;8.38;;;5.90;;
76433;SDS011;65265;53.200;6.080;2023-05-10T17:19:19;5.38;;;4.70;;
76433;SDS011;65265;53.200;6.080;2023-05-10T17:24:10;5.35;;;4.45;;
76433;SDS011;65265;53.200;6.080;2023-05-10T17:29:02;7.30;;;4.88;;
76433;SDS011;65265;53.200;6.080;2023-05-10T17:33:53;7.28;;;5.10;;
76433;SDS011;65265;53.200;6.080;2023-05-10T17:38:46;5.90;;;4.18;;
76433;SDS011;65265;53.200;6.080;2023-05-10T17:43:38;7.05;;;4.63;;
76433;SDS011;65265;53.200;6.080;2023-05-10T17:48:29;5.22;;;3.97;;
76433;SDS011;65265;53.200;6.080;2023-05-10T17:53:21;5.97;;;4.47;;
76433;SDS011;65265;53.200;6.080;2023-05-10T17:58:14;5.88;;;4.65;;
76433;SDS011;65265;53.200;6.080;2023-05-10T18:03:05;6.50;;;4.38;;
76433;SDS011;65265;53.200;6.080;2023-05-10T18:07:57;6.05;;;4.10;;
76433;SDS011;65265;53.200;6.080;2023-05-10T18:12:48;5.85;;;3.50;;
76433;SDS011;65265;53.200;6.080;2023-05-10T18:17:42;5.65;;;3.85;;
76433;SDS011;65265;53.200;6.080;2023-05-10T18:22:34;5.90;;;4.18;;
76433;SDS011;65265;53.200;6.080;2023-05-10T18:27:25;5.03;;;3.05;;
76433;SDS011;65265;53.200;6.080;2023-05-10T18:32:17;6.65;;;5.60;;
76433;SDS011;65265;53.200;6.080;2023-05-10T18:37:10;7.40;;;5.07;;
76433;SDS011;65265;53.200;6.080;2023-05-10T18:42:01;5.35;;;4.40;;
76433;SDS011;65265;53.200;6.080;2023-05-10T18:46:54;6.65;;;5.05;;
76433;SDS011;65265;53.200;6.080;2023-05-10T18:51:45;6.30;;;5.20;;
76433;SDS011;65265;53.200;6.080;2023-05-10T18:56:38;7.82;;;5.75;;
76433;SDS011;65265;53.200;6.080;2023-05-10T19:01:33;6.68;;;4.93;;
76433;SDS011;65265;53.200;6.080;2023-05-10T19:06:25;6.15;;;4.88;;
76433;SDS011;65265;53.200;6.080;2023-05-10T19:11:16;7.63;;;4.82;;
76433;SDS011;65265;53.200;6.080;2023-05-10T19:16:10;6.03;;;5.45;;
76433;SDS011;65265;53.200;6.080;2023-05-10T19:21:04;6.43;;;5.32;;
76433;SDS011;65265;53.200;6.080;2023-05-10T19:25:56;6.05;;;5.10;;
76433;SDS011;65265;53.200;6.080;2023-05-10T19:30:48;5.93;;;3.63;;
76433;SDS011;65265;53.200;6.080;2023-05-10T19:35:41;5.28;;;4.18;;
76433;SDS011;65265;53.200;6.080;2023-05-10T19:40:32;5.80;;;4.35;;
76433;SDS011;65265;53.200;6.080;2023-05-10T19:45:25;7.07;;;5.03;;
76433;SDS011;65265;53.200;6.080;2023-05-10T19:50:16;10.45;;;6.97;;
76433;SDS011;65265;53.200;6.080;2023-05-10T19:55:10;6.03;;;5.10;;
76433;SDS011;65265;53.200;6.080;2023-05-10T20:00:01;4.20;;;2.28;;
76433;SDS011;65265;53.200;6.080;2023-05-10T20:09:45;5.50;;;4.10;;
76433;SDS011;65265;53.200;6.080;2023-05-10T20:14:38;5.47;;;4.53;;
76433;SDS011;65265;53.200;6.080;2023-05-10T20:19:29;7.13;;;4.68;;
76433;SDS011;65265;53.200;6.080;2023-05-10T20:24:21;7.80;;;5.53;;
76433;SDS011;65265;53.200;6.080;2023-05-10T20:29:13;5.35;;;2.70;;
76433;SDS011;65265;53.200;6.080;2023-05-10T20:34:06;8.10;;;3.70;;
76433;SDS011;65265;53.200;6.080;2023-05-10T20:38:57;5.40;;;3.13;;
76433;SDS011;65265;53.200;6.080;2023-05-10T20:43:49;4.15;;;3.42;;
76433;SDS011;65265;53.200;6.080;2023-05-10T20:48:40;7.43;;;5.45;;
76433;SDS011;65265;53.200;6.080;2023-05-10T20:53:33;8.02;;;5.75;;
76433;SDS011;65265;53.200;6.080;2023-05-10T20:58:25;7.03;;;5.45;;
76433;SDS011;65265;53.200;6.080;2023-05-10T21:03:16;7.57;;;5.40;;
76433;SDS011;65265;53.200;6.080;2023-05-10T21:08:07;6.88;;;3.53;;
76433;SDS011;65265;53.200;6.080;2023-05-10T21:13:00;8.63;;;5.90;;
76433;SDS011;65265;53.200;6.080;2023-05-10T21:22:44;5.93;;;5.00;;
76433;SDS011;65265;53.200;6.080;2023-05-10T21:27:35;5.53;;;3.35;;
76433;SDS011;65265;53.200;6.080;2023-05-10T21:32:28;4.72;;;3.58;;
76433;SDS011;65265;53.200;6.080;2023-05-10T21:37:20;4.78;;;3.95;;
76433;SDS011;65265;53.200;6.080;2023-05-10T21:42:11;6.13;;;3.80;;
76433;SDS011;65265;53.200;6.080;2023-05-10T21:47:03;4.70;;;4.05;;
76433;SDS011;65265;53.200;6.080;2023-05-10T21:51:57;3.88;;;2.88;;
76433;SDS011;65265;53.200;6.080;2023-05-10T21:56:49;4.47;;;3.53;;
76433;SDS011;65265;53.200;6.080;2023-05-10T22:01:40;7.40;;;4.43;;
76433;SDS011;65265;53.200;6.080;2023-05-10T22:06:32;5.45;;;4.93;;
76433;SDS011;65265;53.200;6.080;2023-05-10T22:11:25;4.13;;;2.88;;
76433;SDS011;65265;53.200;6.080;2023-05-10T22:16:17;3.05;;;2.25;;
76433;SDS011;65265;53.200;6.080;2023-05-10T22:21:08;2.85;;;2.30;;
76433;SDS011;65265;53.200;6.080;2023-05-10T22:26:00;2.42;;;2.22;;
76433;SDS011;65265;53.200;6.080;2023-05-10T22:30:54;2.85;;;2.47;;
76433;SDS011;65265;53.200;6.080;2023-05-10T22:35:45;3.97;;;2.90;;
76433;SDS011;65265;53.200;6.080;2023-05-10T22:40:37;5.00;;;3.25;;
76433;SDS011;65265;53.200;6.080;2023-05-10T22:45:28;5.47;;;3.30;;
76433;SDS011;65265;53.200;6.080;2023-05-10T22:50:21;4.07;;;3.13;;
76433;SDS011;65265;53.200;6.080;2023-05-10T22:55:13;4.20;;;3.72;;
76433;SDS011;65265;53.200;6.080;2023-05-10T23:00:05;5.53;;;3.85;;
76433;SDS011;65265;53.200;6.080;2023-05-10T23:04:58;6.35;;;4.35;;
76433;SDS011;65265;53.200;6.080;2023-05-10T23:09:51;3.78;;;3.33;;
76433;SDS011;65265;53.200;6.080;2023-05-10T23:14:42;5.00;;;3.33;;
76433;SDS011;65265;53.200;6.080;2023-05-10T23:19:35;4.60;;;3.08;;
76433;SDS011;65265;53.200;6.080;2023-05-10T23:24:26;7.90;;;4.15;;
76433;SDS011;65265;53.200;6.080;2023-05-10T23:29:20;6.07;;;4.40;;
76433;SDS011;65265;53.200;6.080;2023-05-10T23:34:12;6.68;;;4.20;;
76433;SDS011;65265;53.200;6.080;2023-05-10T23:39:04;5.50;;;3.42;;
76433;SDS011;65265;53.200;6.080;2023-05-10T23:48:50;5.05;;;3.38;;
76433;SDS011;65265;53.200;6.080;2023-05-10T23:53:42;4.72;;;3.47;;
76433;SDS011;65265;53.200;6.080;2023-05-10T23:58:33;7.25;;;3.55;;
